sensor_id;sensor_type;location;lat;lon;timestamp;temperature;humidity
59857;DHT22;45733;52.668;6.860;2023-11-21T00:01:03;11.70;99.90
59857;DHT22;45733;52.668;6.860;2023-11-21T00:03:32;11.90;99.90
59857;DHT22;45733;52.668;6.860;2023-11-21T00:06:00;11.50;99.90
59857;DHT22;45733;52.668;6.860;2023-11-21T00:08:28;11.40;99.90
59857;DHT22;45733;52.668;6.860;2023-11-21T00:11:01;11.80;99.90
59857;DHT22;45733;52.668;6.860;2023-11-21T00:14:04;11.50;99.90
59857;DHT22;45733;52.668;6.860;2023-11-21T00:19:55;11.60;99.90
59857;DHT22;45733;52.668;6.860;2023-11-21T00:22:24;11.50;99.90
59857;DHT22;45733;52.668;6.860;2023-11-21T00:24:54;11.80;99.90
59857;DHT22;45733;52.668;6.860;2023-11-21T00:27:23;11.60;99.90
59857;DHT22;45733;52.668;6.860;2023-11-21T00:29:48;11.40;99.90
59857;DHT22;45733;52.668;6.860;2023-11-21T00:32:14;11.70;99.90
59857;DHT22;45733;52.668;6.860;2023-11-21T00:34:40;11.70;99.90
59857;DHT22;45733;52.668;6.860;2023-11-21T00:37:14;11.40;99.90
59857;DHT22;45733;52.668;6.860;2023-11-21T00:39:40;11.70;99.90
59857;DHT22;45733;52.668;6.860;2023-11-21T00:42:06;11.60;99.90
59857;DHT22;45733;52.668;6.860;2023-11-21T00:44:38;11.40;99.90
59857;DHT22;45733;52.668;6.860;2023-11-21T00:47:05;11.40;99.90
59857;DHT22;45733;52.668;6.860;2023-11-21T00:49:33;11.20;99.90
59857;DHT22;45733;52.668;6.860;2023-11-21T00:52:02;11.60;99.90
59857;DHT22;45733;52.668;6.860;2023-11-21T00:54:53;11.20;99.90
59857;DHT22;45733;52.668;6.860;2023-11-21T00:57:32;11.70;99.90
59857;DHT22;45733;52.668;6.860;2023-11-21T01:00:05;11.60;99.90
59857;DHT22;45733;52.668;6.860;2023-11-21T01:02:39;11.70;99.90
59857;DHT22;45733;52.668;6.860;2023-11-21T01:05:08;11.50;99.90
59857;DHT22;45733;52.668;6.860;2023-11-21T01:07:37;11.80;99.90
59857;DHT22;45733;52.668;6.860;2023-11-21T01:10:04;11.40;99.90
59857;DHT22;45733;52.668;6.860;2023-11-21T01:12:36;11.80;99.90
59857;DHT22;45733;52.668;6.860;2023-11-21T01:15:04;11.80;99.90
59857;DHT22;45733;52.668;6.860;2023-11-21T01:17:33;11.50;99.90
59857;DHT22;45733;52.668;6.860;2023-11-21T01:20:00;11.90;99.90
59857;DHT22;45733;52.668;6.860;2023-11-21T01:22:30;11.80;99.90
59857;DHT22;45733;52.668;6.860;2023-11-21T01:24:56;11.60;99.90
59857;DHT22;45733;52.668;6.860;2023-11-21T01:27:23;11.50;99.90
59857;DHT22;45733;52.668;6.860;2023-11-21T01:29:49;11.70;99.90
59857;DHT22;45733;52.668;6.860;2023-11-21T01:32:15;11.70;99.90
59857;DHT22;45733;52.668;6.860;2023-11-21T01:34:40;11.70;99.90
59857;DHT22;45733;52.668;6.860;2023-11-21T01:37:06;12.00;99.90
59857;DHT22;45733;52.668;6.860;2023-11-21T01:39:32;11.50;99.90
59857;DHT22;45733;52.668;6.860;2023-11-21T01:41:58;12.10;99.90
59857;DHT22;45733;52.668;6.860;2023-11-21T01:44:24;11.50;99.90
59857;DHT22;45733;52.668;6.860;2023-11-21T01:46:50;12.00;99.90
59857;DHT22;45733;52.668;6.860;2023-11-21T01:49:17;12.00;99.90
59857;DHT22;45733;52.668;6.860;2023-11-21T01:51:59;11.70;99.90
59857;DHT22;45733;52.668;6.860;2023-11-21T01:54:34;11.70;99.90
59857;DHT22;45733;52.668;6.860;2023-11-21T01:57:04;11.60;99.90
59857;DHT22;45733;52.668;6.860;2023-11-21T01:59:40;12.10;99.90
59857;DHT22;45733;52.668;6.860;2023-11-21T02:02:10;12.10;99.90
59857;DHT22;45733;52.668;6.860;2023-11-21T02:04:36;12.00;99.90
59857;DHT22;45733;52.668;6.860;2023-11-21T02:07:03;11.70;99.90
59857;DHT22;45733;52.668;6.860;2023-11-21T02:09:32;11.70;99.90
59857;DHT22;45733;52.668;6.860;2023-11-21T02:11:59;11.90;99.90
59857;DHT22;45733;52.668;6.860;2023-11-21T02:14:30;12.10;99.90
59857;DHT22;45733;52.668;6.860;2023-11-21T02:16:59;12.10;99.90
59857;DHT22;45733;52.668;6.860;2023-11-21T02:19:26;11.70;99.90
59857;DHT22;45733;52.668;6.860;2023-11-21T02:21:57;11.80;99.90
59857;DHT22;45733;52.668;6.860;2023-11-21T02:24:32;12.10;99.90
59857;DHT22;45733;52.668;6.860;2023-11-21T02:27:02;12.10;99.90
59857;DHT22;45733;52.668;6.860;2023-11-21T02:29:28;12.10;99.90
59857;DHT22;45733;52.668;6.860;2023-11-21T02:31:54;12.00;99.90
59857;DHT22;45733;52.668;6.860;2023-11-21T02:34:21;12.10;99.90
59857;DHT22;45733;52.668;6.860;2023-11-21T02:36:47;11.60;99.90
59857;DHT22;45733;52.668;6.860;2023-11-21T02:39:17;11.80;99.90
59857;DHT22;45733;52.668;6.860;2023-11-21T02:41:47;12.10;99.90
59857;DHT22;45733;52.668;6.860;2023-11-21T02:44:13;11.80;99.90
59857;DHT22;45733;52.668;6.860;2023-11-21T02:46:39;11.60;99.90
59857;DHT22;45733;52.668;6.860;2023-11-21T02:49:06;11.80;99.90
59857;DHT22;45733;52.668;6.860;2023-11-21T02:51:35;11.60;99.90
59857;DHT22;45733;52.668;6.860;2023-11-21T02:54:00;11.90;99.90
59857;DHT22;45733;52.668;6.860;2023-11-21T02:56:28;11.50;99.90
59857;DHT22;45733;52.668;6.860;2023-11-21T02:58:59;11.90;99.90
59857;DHT22;45733;52.668;6.860;2023-11-21T03:01:28;11.90;99.90
59857;DHT22;45733;52.668;6.860;2023-11-21T03:03:54;12.10;99.90
59857;DHT22;45733;52.668;6.860;2023-11-21T03:06:21;12.10;99.90
59857;DHT22;45733;52.668;6.860;2023-11-21T03:08:47;11.60;99.90
59857;DHT22;45733;52.668;6.860;2023-11-21T03:11:13;11.80;99.90
59857;DHT22;45733;52.668;6.860;2023-11-21T03:13:42;11.90;99.90
59857;DHT22;45733;52.668;6.860;2023-11-21T03:16:13;11.70;99.90
59857;DHT22;45733;52.668;6.860;2023-11-21T03:18:50;11.70;99.90
59857;DHT22;45733;52.668;6.860;2023-11-21T03:21:18;11.70;99.90
59857;DHT22;45733;52.668;6.860;2023-11-21T03:23:44;11.70;99.90
59857;DHT22;45733;52.668;6.860;2023-11-21T03:26:13;11.70;99.90
59857;DHT22;45733;52.668;6.860;2023-11-21T03:28:39;12.30;99.90
59857;DHT22;45733;52.668;6.860;2023-11-21T03:31:05;12.30;99.90
59857;DHT22;45733;52.668;6.860;2023-11-21T03:33:32;12.30;99.90
59857;DHT22;45733;52.668;6.860;2023-11-21T03:35:58;12.20;99.90
59857;DHT22;45733;52.668;6.860;2023-11-21T03:38:32;12.00;99.90
59857;DHT22;45733;52.668;6.860;2023-11-21T03:41:10;12.00;99.90
59857;DHT22;45733;52.668;6.860;2023-11-21T03:43:37;12.30;99.90
59857;DHT22;45733;52.668;6.860;2023-11-21T03:46:03;11.90;99.90
59857;DHT22;45733;52.668;6.860;2023-11-21T03:48:29;12.40;99.90
59857;DHT22;45733;52.668;6.860;2023-11-21T03:50:58;12.20;99.90
59857;DHT22;45733;52.668;6.860;2023-11-21T03:53:23;12.10;99.90
59857;DHT22;45733;52.668;6.860;2023-11-21T03:55:49;11.70;99.90
59857;DHT22;45733;52.668;6.860;2023-11-21T03:58:15;12.20;99.90
59857;DHT22;45733;52.668;6.860;2023-11-21T04:00:41;12.30;99.90
59857;DHT22;45733;52.668;6.860;2023-11-21T04:03:07;12.00;99.90
59857;DHT22;45733;52.668;6.860;2023-11-21T04:05:33;12.20;99.90
59857;DHT22;45733;52.668;6.860;2023-11-21T04:07:58;11.80;99.90
59857;DHT22;45733;52.668;6.860;2023-11-21T04:10:24;12.40;99.90
59857;DHT22;45733;52.668;6.860;2023-11-21T04:12:50;12.30;99.90
59857;DHT22;45733;52.668;6.860;2023-11-21T04:15:16;11.90;99.90
59857;DHT22;45733;52.668;6.860;2023-11-21T04:17:42;12.30;99.90
59857;DHT22;45733;52.668;6.860;2023-11-21T04:20:09;12.30;99.90
59857;DHT22;45733;52.668;6.860;2023-11-21T04:22:43;11.80;99.90
59857;DHT22;45733;52.668;6.860;2023-11-21T04:25:13;12.10;99.90
59857;DHT22;45733;52.668;6.860;2023-11-21T04:27:40;11.90;99.90
59857;DHT22;45733;52.668;6.860;2023-11-21T04:30:06;12.20;99.90
59857;DHT22;45733;52.668;6.860;2023-11-21T04:32:33;12.10;99.90
59857;DHT22;45733;52.668;6.860;2023-11-21T04:34:59;12.20;99.90
59857;DHT22;45733;52.668;6.860;2023-11-21T04:37:25;12.10;99.90
59857;DHT22;45733;52.668;6.860;2023-11-21T04:39:50;12.10;99.90
59857;DHT22;45733;52.668;6.860;2023-11-21T04:42:17;12.00;99.90
59857;DHT22;45733;52.668;6.860;2023-11-21T04:44:43;12.10;99.90
59857;DHT22;45733;52.668;6.860;2023-11-21T04:47:10;12.00;99.90
59857;DHT22;45733;52.668;6.860;2023-11-21T04:49:36;11.80;99.90
59857;DHT22;45733;52.668;6.860;2023-11-21T04:52:02;11.60;99.90
59857;DHT22;45733;52.668;6.860;2023-11-21T04:54:31;11.80;99.90
59857;DHT22;45733;52.668;6.860;2023-11-21T04:57:00;11.90;99.90
59857;DHT22;45733;52.668;6.860;2023-11-21T04:59:28;11.90;99.90
59857;DHT22;45733;52.668;6.860;2023-11-21T05:01:57;11.50;99.90
59857;DHT22;45733;52.668;6.860;2023-11-21T05:04:26;12.00;99.90
59857;DHT22;45733;52.668;6.860;2023-11-21T05:06:52;11.60;99.90
59857;DHT22;45733;52.668;6.860;2023-11-21T05:09:18;11.50;99.90
59857;DHT22;45733;52.668;6.860;2023-11-21T05:11:47;12.00;99.90
59857;DHT22;45733;52.668;6.860;2023-11-21T05:14:13;11.60;99.90
59857;DHT22;45733;52.668;6.860;2023-11-21T05:16:42;11.80;99.90
59857;DHT22;45733;52.668;6.860;2023-11-21T05:19:11;11.50;99.90
59857;DHT22;45733;52.668;6.860;2023-11-21T05:21:38;11.90;99.90
59857;DHT22;45733;52.668;6.860;2023-11-21T05:24:04;11.50;99.90
59857;DHT22;45733;52.668;6.860;2023-11-21T05:26:31;11.90;99.90
59857;DHT22;45733;52.668;6.860;2023-11-21T05:28:57;12.00;99.90
59857;DHT22;45733;52.668;6.860;2023-11-21T05:31:23;12.10;99.90
59857;DHT22;45733;52.668;6.860;2023-11-21T05:33:48;11.60;99.90
59857;DHT22;45733;52.668;6.860;2023-11-21T05:36:14;11.80;99.90
59857;DHT22;45733;52.668;6.860;2023-11-21T05:38:40;12.00;99.90
59857;DHT22;45733;52.668;6.860;2023-11-21T05:41:10;11.70;99.90
59857;DHT22;45733;52.668;6.860;2023-11-21T05:43:39;12.10;99.90
59857;DHT22;45733;52.668;6.860;2023-11-21T05:46:05;12.10;99.90
59857;DHT22;45733;52.668;6.860;2023-11-21T05:48:34;11.90;99.90
59857;DHT22;45733;52.668;6.860;2023-11-21T05:51:04;12.20;99.90
59857;DHT22;45733;52.668;6.860;2023-11-21T05:53:33;12.10;99.90
59857;DHT22;45733;52.668;6.860;2023-11-21T05:56:01;12.10;99.90
59857;DHT22;45733;52.668;6.860;2023-11-21T05:58:29;12.00;99.90
59857;DHT22;45733;52.668;6.860;2023-11-21T06:01:05;11.70;99.90
59857;DHT22;45733;52.668;6.860;2023-11-21T06:03:37;11.80;99.90
59857;DHT22;45733;52.668;6.860;2023-11-21T06:06:09;11.60;99.90
59857;DHT22;45733;52.668;6.860;2023-11-21T06:08:53;11.70;99.90
59857;DHT22;45733;52.668;6.860;2023-11-21T06:11:19;11.80;99.90
59857;DHT22;45733;52.668;6.860;2023-11-21T06:13:48;12.40;99.90
59857;DHT22;45733;52.668;6.860;2023-11-21T06:16:14;11.80;99.90
59857;DHT22;45733;52.668;6.860;2023-11-21T06:18:41;12.20;99.90
59857;DHT22;45733;52.668;6.860;2023-11-21T06:21:10;12.30;99.90
59857;DHT22;45733;52.668;6.860;2023-11-21T06:23:40;11.70;99.90
59857;DHT22;45733;52.668;6.860;2023-11-21T06:26:08;11.70;99.90
59857;DHT22;45733;52.668;6.860;2023-11-21T06:28:35;12.20;99.90
59857;DHT22;45733;52.668;6.860;2023-11-21T06:31:03;12.40;99.90
59857;DHT22;45733;52.668;6.860;2023-11-21T06:33:32;12.50;99.90
59857;DHT22;45733;52.668;6.860;2023-11-21T06:43:36;12.10;99.90
59857;DHT22;45733;52.668;6.860;2023-11-21T06:50:34;12.50;99.90
59857;DHT22;45733;52.668;6.860;2023-11-21T06:53:20;12.50;99.90
59857;DHT22;45733;52.668;6.860;2023-11-21T06:58:49;12.50;99.90
59857;DHT22;45733;52.668;6.860;2023-11-21T07:01:30;12.10;99.90
59857;DHT22;45733;52.668;6.860;2023-11-21T07:04:15;12.50;99.90
59857;DHT22;45733;52.668;6.860;2023-11-21T07:10:07;12.50;99.90
59857;DHT22;45733;52.668;6.860;2023-11-21T07:13:15;12.30;99.90
59857;DHT22;45733;52.668;6.860;2023-11-21T07:15:44;12.40;99.90
59857;DHT22;45733;52.668;6.860;2023-11-21T07:18:12;11.90;99.90
59857;DHT22;45733;52.668;6.860;2023-11-21T07:20:49;12.40;99.90
59857;DHT22;45733;52.668;6.860;2023-11-21T07:23:15;12.10;99.90
59857;DHT22;45733;52.668;6.860;2023-11-21T07:25:44;12.10;99.90
59857;DHT22;45733;52.668;6.860;2023-11-21T07:31:07;12.10;99.90
59857;DHT22;45733;52.668;6.860;2023-11-21T07:34:05;12.30;99.90
59857;DHT22;45733;52.668;6.860;2023-11-21T07:36:43;12.50;99.90
59857;DHT22;45733;52.668;6.860;2023-11-21T07:39:30;12.40;99.90
59857;DHT22;45733;52.668;6.860;2023-11-21T07:41:56;12.50;99.90
59857;DHT22;45733;52.668;6.860;2023-11-21T07:44:29;12.00;99.90
59857;DHT22;45733;52.668;6.860;2023-11-21T07:47:26;12.10;99.90
59857;DHT22;45733;52.668;6.860;2023-11-21T07:49:53;12.10;99.90
59857;DHT22;45733;52.668;6.860;2023-11-21T07:52:26;12.60;99.90
59857;DHT22;45733;52.668;6.860;2023-11-21T07:55:10;12.50;99.90
59857;DHT22;45733;52.668;6.860;2023-11-21T07:58:24;12.60;99.90
59857;DHT22;45733;52.668;6.860;2023-11-21T08:00:50;12.50;99.90
59857;DHT22;45733;52.668;6.860;2023-11-21T08:03:19;12.20;99.90
59857;DHT22;45733;52.668;6.860;2023-11-21T08:05:45;12.60;99.90
59857;DHT22;45733;52.668;6.860;2023-11-21T08:08:12;12.10;99.90
59857;DHT22;45733;52.668;6.860;2023-11-21T08:10:38;12.40;99.90
59857;DHT22;45733;52.668;6.860;2023-11-21T08:13:05;12.00;99.90
59857;DHT22;45733;52.668;6.860;2023-11-21T08:18:43;12.30;99.90
59857;DHT22;45733;52.668;6.860;2023-11-21T08:21:11;12.60;99.90
59857;DHT22;45733;52.668;6.860;2023-11-21T08:23:37;12.30;99.90
59857;DHT22;45733;52.668;6.860;2023-11-21T08:26:06;12.50;99.90
59857;DHT22;45733;52.668;6.860;2023-11-21T08:28:35;12.50;99.90
59857;DHT22;45733;52.668;6.860;2023-11-21T08:31:01;12.60;99.90
59857;DHT22;45733;52.668;6.860;2023-11-21T08:33:27;12.40;99.90
59857;DHT22;45733;52.668;6.860;2023-11-21T08:35:56;12.30;99.90
59857;DHT22;45733;52.668;6.860;2023-11-21T08:38:33;12.50;99.90
59857;DHT22;45733;52.668;6.860;2023-11-21T08:41:07;12.80;99.90
59857;DHT22;45733;52.668;6.860;2023-11-21T08:43:36;12.90;99.90
59857;DHT22;45733;52.668;6.860;2023-11-21T08:46:07;12.50;99.90
59857;DHT22;45733;52.668;6.860;2023-11-21T08:48:45;13.00;99.90
59857;DHT22;45733;52.668;6.860;2023-11-21T08:51:18;12.80;99.90
59857;DHT22;45733;52.668;6.860;2023-11-21T08:53:44;12.70;99.90
59857;DHT22;45733;52.668;6.860;2023-11-21T08:56:13;12.70;99.90
59857;DHT22;45733;52.668;6.860;2023-11-21T08:58:51;12.80;99.90
59857;DHT22;45733;52.668;6.860;2023-11-21T09:01:28;13.00;99.90
59857;DHT22;45733;52.668;6.860;2023-11-21T09:04:05;13.10;99.90
59857;DHT22;45733;52.668;6.860;2023-11-21T09:06:31;12.90;99.90
59857;DHT22;45733;52.668;6.860;2023-11-21T09:09:06;13.00;99.90
59857;DHT22;45733;52.668;6.860;2023-11-21T09:11:39;12.80;99.90
59857;DHT22;45733;52.668;6.860;2023-11-21T09:14:05;13.10;99.90
59857;DHT22;45733;52.668;6.860;2023-11-21T09:16:33;13.00;99.90
59857;DHT22;45733;52.668;6.860;2023-11-21T09:19:09;12.90;99.90
59857;DHT22;45733;52.668;6.860;2023-11-21T09:21:40;12.80;99.90
59857;DHT22;45733;52.668;6.860;2023-11-21T09:24:16;12.70;99.90
59857;DHT22;45733;52.668;6.860;2023-11-21T09:26:42;12.90;99.90
59857;DHT22;45733;52.668;6.860;2023-11-21T09:29:11;12.90;99.90
59857;DHT22;45733;52.668;6.860;2023-11-21T09:31:37;12.70;99.90
59857;DHT22;45733;52.668;6.860;2023-11-21T09:34:10;12.60;99.90
59857;DHT22;45733;52.668;6.860;2023-11-21T09:36:37;13.00;99.90
59857;DHT22;45733;52.668;6.860;2023-11-21T09:39:05;12.50;99.90
59857;DHT22;45733;52.668;6.860;2023-11-21T09:41:56;12.50;99.90
59857;DHT22;45733;52.668;6.860;2023-11-21T09:47:42;12.50;99.90
59857;DHT22;45733;52.668;6.860;2023-11-21T09:50:09;12.70;99.90
59857;DHT22;45733;52.668;6.860;2023-11-21T09:55:37;12.70;99.90
59857;DHT22;45733;52.668;6.860;2023-11-21T09:58:08;12.50;99.90
59857;DHT22;45733;52.668;6.860;2023-11-21T10:00:43;12.40;99.90
59857;DHT22;45733;52.668;6.860;2023-11-21T10:03:10;12.40;99.90
59857;DHT22;45733;52.668;6.860;2023-11-21T10:05:37;12.50;99.90
59857;DHT22;45733;52.668;6.860;2023-11-21T10:08:15;12.50;99.90
59857;DHT22;45733;52.668;6.860;2023-11-21T10:10:46;12.30;99.90
59857;DHT22;45733;52.668;6.860;2023-11-21T10:13:14;12.60;99.90
59857;DHT22;45733;52.668;6.860;2023-11-21T10:15:43;12.50;99.90
59857;DHT22;45733;52.668;6.860;2023-11-21T10:18:14;12.20;99.90
59857;DHT22;45733;52.668;6.860;2023-11-21T10:20:44;12.10;99.90
59857;DHT22;45733;52.668;6.860;2023-11-21T10:23:19;12.40;99.90
59857;DHT22;45733;52.668;6.860;2023-11-21T10:25:45;12.00;99.90
59857;DHT22;45733;52.668;6.860;2023-11-21T10:28:10;12.20;99.90
59857;DHT22;45733;52.668;6.860;2023-11-21T10:30:38;12.00;99.90
59857;DHT22;45733;52.668;6.860;2023-11-21T10:33:08;12.40;99.90
59857;DHT22;45733;52.668;6.860;2023-11-21T10:35:47;12.40;99.90
59857;DHT22;45733;52.668;6.860;2023-11-21T10:38:20;12.30;99.90
59857;DHT22;45733;52.668;6.860;2023-11-21T10:40:50;12.30;99.90
59857;DHT22;45733;52.668;6.860;2023-11-21T10:43:17;12.60;99.90
59857;DHT22;45733;52.668;6.860;2023-11-21T10:45:43;12.40;99.90
59857;DHT22;45733;52.668;6.860;2023-11-21T10:48:10;12.40;99.90
59857;DHT22;45733;52.668;6.860;2023-11-21T10:50:38;12.40;99.90
59857;DHT22;45733;52.668;6.860;2023-11-21T10:53:04;12.30;99.90
59857;DHT22;45733;52.668;6.860;2023-11-21T10:55:31;12.60;99.90
59857;DHT22;45733;52.668;6.860;2023-11-21T10:58:03;12.50;99.90
59857;DHT22;45733;52.668;6.860;2023-11-21T11:00:31;12.50;99.90
59857;DHT22;45733;52.668;6.860;2023-11-21T11:02:57;12.50;99.90
59857;DHT22;45733;52.668;6.860;2023-11-21T11:05:26;12.30;99.90
59857;DHT22;45733;52.668;6.860;2023-11-21T11:07:58;12.30;99.90
59857;DHT22;45733;52.668;6.860;2023-11-21T11:10:28;12.40;99.90
59857;DHT22;45733;52.668;6.860;2023-11-21T11:12:55;12.40;99.90
59857;DHT22;45733;52.668;6.860;2023-11-21T11:15:23;12.40;99.90
59857;DHT22;45733;52.668;6.860;2023-11-21T11:17:49;12.50;99.90
59857;DHT22;45733;52.668;6.860;2023-11-21T11:20:16;12.50;99.90
59857;DHT22;45733;52.668;6.860;2023-11-21T11:22:56;12.40;99.90
59857;DHT22;45733;52.668;6.860;2023-11-21T11:25:37;12.20;99.90
59857;DHT22;45733;52.668;6.860;2023-11-21T11:28:07;12.20;99.90
59857;DHT22;45733;52.668;6.860;2023-11-21T11:36:47;12.30;99.90
59857;DHT22;45733;52.668;6.860;2023-11-21T11:38:51;12.10;99.90
59857;DHT22;45733;52.668;6.860;2023-11-21T11:41:30;12.20;99.90
59857;DHT22;45733;52.668;6.860;2023-11-21T11:43:58;12.20;99.90
59857;DHT22;45733;52.668;6.860;2023-11-21T11:46:44;12.40;99.90
59857;DHT22;45733;52.668;6.860;2023-11-21T11:49:29;12.40;99.90
59857;DHT22;45733;52.668;6.860;2023-11-21T11:52:32;12.30;99.90
59857;DHT22;45733;52.668;6.860;2023-11-21T11:55:00;12.20;99.90
59857;DHT22;45733;52.668;6.860;2023-11-21T11:57:26;12.30;99.90
59857;DHT22;45733;52.668;6.860;2023-11-21T12:00:18;12.20;99.90
59857;DHT22;45733;52.668;6.860;2023-11-21T12:02:47;12.20;99.90
59857;DHT22;45733;52.668;6.860;2023-11-21T12:05:18;12.20;99.90
59857;DHT22;45733;52.668;6.860;2023-11-21T12:07:45;12.20;99.90
59857;DHT22;45733;52.668;6.860;2023-11-21T12:10:15;12.10;99.90
59857;DHT22;45733;52.668;6.860;2023-11-21T12:12:58;12.30;99.90
59857;DHT22;45733;52.668;6.860;2023-11-21T12:15:24;12.00;99.90
59857;DHT22;45733;52.668;6.860;2023-11-21T12:17:53;12.00;99.90
59857;DHT22;45733;52.668;6.860;2023-11-21T12:20:23;11.90;99.90
59857;DHT22;45733;52.668;6.860;2023-11-21T12:22:57;11.80;99.90
59857;DHT22;45733;52.668;6.860;2023-11-21T12:25:27;11.90;99.90
59857;DHT22;45733;52.668;6.860;2023-11-21T12:28:01;12.00;99.90
59857;DHT22;45733;52.668;6.860;2023-11-21T12:30:30;11.90;99.90
59857;DHT22;45733;52.668;6.860;2023-11-21T12:32:58;12.00;99.90
59857;DHT22;45733;52.668;6.860;2023-11-21T12:35:33;12.00;99.90
59857;DHT22;45733;52.668;6.860;2023-11-21T12:38:00;12.10;99.90
59857;DHT22;45733;52.668;6.860;2023-11-21T12:40:28;12.10;99.90
59857;DHT22;45733;52.668;6.860;2023-11-21T12:42:56;12.00;99.90
59857;DHT22;45733;52.668;6.860;2023-11-21T12:45:24;12.10;99.90
59857;DHT22;45733;52.668;6.860;2023-11-21T12:48:01;12.10;99.90
59857;DHT22;45733;52.668;6.860;2023-11-21T12:50:31;12.10;99.90
59857;DHT22;45733;52.668;6.860;2023-11-21T12:53:07;12.00;99.90
59857;DHT22;45733;52.668;6.860;2023-11-21T12:55:38;12.10;99.90
59857;DHT22;45733;52.668;6.860;2023-11-21T12:58:05;12.20;99.90
59857;DHT22;45733;52.668;6.860;2023-11-21T13:00:36;12.00;99.90
59857;DHT22;45733;52.668;6.860;2023-11-21T13:03:07;12.10;99.90
59857;DHT22;45733;52.668;6.860;2023-11-21T13:05:39;12.00;99.90
59857;DHT22;45733;52.668;6.860;2023-11-21T13:08:13;12.00;99.90
59857;DHT22;45733;52.668;6.860;2023-11-21T13:10:40;12.20;99.90
59857;DHT22;45733;52.668;6.860;2023-11-21T13:13:10;12.20;99.90
59857;DHT22;45733;52.668;6.860;2023-11-21T13:15:51;12.20;99.90
59857;DHT22;45733;52.668;6.860;2023-11-21T13:18:19;12.20;99.90
59857;DHT22;45733;52.668;6.860;2023-11-21T13:20:57;12.20;99.90
59857;DHT22;45733;52.668;6.860;2023-11-21T13:23:24;12.20;99.90
59857;DHT22;45733;52.668;6.860;2023-11-21T13:25:59;12.30;99.90
59857;DHT22;45733;52.668;6.860;2023-11-21T13:29:05;12.10;99.90
59857;DHT22;45733;52.668;6.860;2023-11-21T13:31:31;12.00;99.90
59857;DHT22;45733;52.668;6.860;2023-11-21T13:33:58;12.00;99.90
59857;DHT22;45733;52.668;6.860;2023-11-21T13:36:30;12.00;99.90
59857;DHT22;45733;52.668;6.860;2023-11-21T13:39:01;12.00;99.90
59857;DHT22;45733;52.668;6.860;2023-11-21T13:41:33;11.90;99.90
59857;DHT22;45733;52.668;6.860;2023-11-21T13:44:00;12.00;99.90
59857;DHT22;45733;52.668;6.860;2023-11-21T13:46:42;11.90;99.90
59857;DHT22;45733;52.668;6.860;2023-11-21T13:49:07;11.90;99.90
59857;DHT22;45733;52.668;6.860;2023-11-21T13:51:36;11.80;99.90
59857;DHT22;45733;52.668;6.860;2023-11-21T13:54:10;11.80;99.90
59857;DHT22;45733;52.668;6.860;2023-11-21T13:56:36;11.90;99.90
59857;DHT22;45733;52.668;6.860;2023-11-21T13:59:03;12.00;99.90
59857;DHT22;45733;52.668;6.860;2023-11-21T14:01:40;11.80;99.90
59857;DHT22;45733;52.668;6.860;2023-11-21T14:04:22;11.80;99.90
59857;DHT22;45733;52.668;6.860;2023-11-21T14:07:07;11.70;99.90
59857;DHT22;45733;52.668;6.860;2023-11-21T14:09:53;11.60;99.90
59857;DHT22;45733;52.668;6.860;2023-11-21T14:12:19;11.70;99.90
59857;DHT22;45733;52.668;6.860;2023-11-21T14:14:45;11.50;99.90
59857;DHT22;45733;52.668;6.860;2023-11-21T14:17:13;11.40;99.90
59857;DHT22;45733;52.668;6.860;2023-11-21T14:19:38;11.40;99.90
59857;DHT22;45733;52.668;6.860;2023-11-21T14:22:10;11.50;99.90
59857;DHT22;45733;52.668;6.860;2023-11-21T14:24:36;11.70;99.90
59857;DHT22;45733;52.668;6.860;2023-11-21T14:27:02;11.60;99.90
59857;DHT22;45733;52.668;6.860;2023-11-21T14:29:29;11.70;99.90
59857;DHT22;45733;52.668;6.860;2023-11-21T14:32:15;11.80;99.90
59857;DHT22;45733;52.668;6.860;2023-11-21T14:35:03;11.80;99.90
59857;DHT22;45733;52.668;6.860;2023-11-21T14:38:29;11.70;99.90
59857;DHT22;45733;52.668;6.860;2023-11-21T14:41:15;11.70;99.90
59857;DHT22;45733;52.668;6.860;2023-11-21T14:44:20;11.70;99.90
59857;DHT22;45733;52.668;6.860;2023-11-21T14:46:58;11.70;99.90
59857;DHT22;45733;52.668;6.860;2023-11-21T14:49:35;11.70;99.90
59857;DHT22;45733;52.668;6.860;2023-11-21T14:52:20;11.60;99.90
59857;DHT22;45733;52.668;6.860;2023-11-21T14:55:06;11.60;99.90
59857;DHT22;45733;52.668;6.860;2023-11-21T14:58:24;11.60;99.90
59857;DHT22;45733;52.668;6.860;2023-11-21T15:00:56;11.50;99.90
59857;DHT22;45733;52.668;6.860;2023-11-21T15:03:27;11.40;99.90
59857;DHT22;45733;52.668;6.860;2023-11-21T15:06:02;11.40;99.90
59857;DHT22;45733;52.668;6.860;2023-11-21T15:09:16;11.40;99.90
59857;DHT22;45733;52.668;6.860;2023-11-21T15:12:01;11.50;99.90
59857;DHT22;45733;52.668;6.860;2023-11-21T15:18:54;11.50;99.90
59857;DHT22;45733;52.668;6.860;2023-11-21T15:22:04;11.50;99.90
59857;DHT22;45733;52.668;6.860;2023-11-21T15:24:43;11.40;99.90
59857;DHT22;45733;52.668;6.860;2023-11-21T15:27:12;11.40;99.90
59857;DHT22;45733;52.668;6.860;2023-11-21T15:33:08;11.30;99.90
59857;DHT22;45733;52.668;6.860;2023-11-21T15:36:14;11.30;99.90
59857;DHT22;45733;52.668;6.860;2023-11-21T15:39:02;11.30;99.90
59857;DHT22;45733;52.668;6.860;2023-11-21T15:41:28;11.30;99.90
59857;DHT22;45733;52.668;6.860;2023-11-21T15:43:54;11.20;99.90
59857;DHT22;45733;52.668;6.860;2023-11-21T15:46:34;11.20;99.90
59857;DHT22;45733;52.668;6.860;2023-11-21T15:52:13;11.20;99.90
59857;DHT22;45733;52.668;6.860;2023-11-21T15:54:45;11.10;99.90
59857;DHT22;45733;52.668;6.860;2023-11-21T15:57:13;11.10;99.90
59857;DHT22;45733;52.668;6.860;2023-11-21T15:59:40;11.10;99.90
59857;DHT22;45733;52.668;6.860;2023-11-21T16:02:07;11.10;99.90
59857;DHT22;45733;52.668;6.860;2023-11-21T16:04:36;11.10;99.90
59857;DHT22;45733;52.668;6.860;2023-11-21T16:07:25;10.90;99.90
59857;DHT22;45733;52.668;6.860;2023-11-21T16:09:51;10.90;99.90
59857;DHT22;45733;52.668;6.860;2023-11-21T16:12:20;10.90;99.90
59857;DHT22;45733;52.668;6.860;2023-11-21T16:14:49;10.90;99.90
59857;DHT22;45733;52.668;6.860;2023-11-21T16:17:20;10.80;99.90
59857;DHT22;45733;52.668;6.860;2023-11-21T16:20:08;10.80;99.90
59857;DHT22;45733;52.668;6.860;2023-11-21T16:23:08;10.80;99.90
59857;DHT22;45733;52.668;6.860;2023-11-21T16:28:46;10.70;99.90
59857;DHT22;45733;52.668;6.860;2023-11-21T16:32:09;10.50;99.90
59857;DHT22;45733;52.668;6.860;2023-11-21T16:35:19;10.50;99.90
59857;DHT22;45733;52.668;6.860;2023-11-21T16:37:45;10.40;99.90
59857;DHT22;45733;52.668;6.860;2023-11-21T16:46:33;10.10;99.90
59857;DHT22;45733;52.668;6.860;2023-11-21T16:52:12;9.90;99.90
59857;DHT22;45733;52.668;6.860;2023-11-21T16:55:39;9.90;99.90
59857;DHT22;45733;52.668;6.860;2023-11-21T16:58:19;9.90;99.90
59857;DHT22;45733;52.668;6.860;2023-11-21T17:01:26;9.70;99.90
59857;DHT22;45733;52.668;6.860;2023-11-21T17:10:09;9.60;99.90